EDA weather

Edna Bay Seaplane Base
Edna Bay, Alaska, United States

Public forecast

Using degrees Fahrenheit for public forecast. Weather courtesy of forecast.io.

Closest aviation weather report (METAR) to Edna Bay Seaplane Base

Report is more than 6 hours old.

Closest report is Klawock Airport, 29.8 nm (55.1 km) SE. Retrieved 2020/08/03 19:32 UTC (9 hours ago):

PAKW 031932Z AUTO 21008KT 10SM SCT026 BKN038 OVC045 16/13 A3001 RMK AO2 T01560128 TSNO

Closest aviation forecast (TAF) to Edna Bay Seaplane Base

Closest forecast is Klawock Airport, 29.8 nm (55.1 km) SE. Retrieved 2020-08-04 00:36 UTC (4 hours ago):

TAF PAKW 032334Z 0400/0424 22007KT P6SM VCSH SCT030 BKN040 FM040600 19010KT 6SM -RA BR OVC015 FM041200 18013KT 6SM -RA BR OVC015 AMD NOT SKED